Time,TemperatureF,DewpointF,PressureIn,WindDirection,WindDirectionDegrees,WindSpeedMPH,WindSpeedGustMPH,Humidity,HourlyPrecipIn,Conditions,Clouds,dailyrainin,SolarRadiationWatts/m^2,SoftwareType,DateUTC
2013-03-15 00:02:00,40.0,15.0,30.54,North,7,5.0,6.0,35,0.00,,,0.00,0.000000,,2013-03-15 06:02:00,
2013-03-15 00:12:00,39.0,14.0,30.53,WNW,296,0.0,7.0,35,0.00,,,0.00,0.000000,,2013-03-15 06:12:00,
2013-03-15 00:32:00,39.0,14.0,30.53,WNW,296,0.0,7.0,35,0.00,,,0.00,0.000000,,2013-03-15 06:32:00,
2013-03-15 00:42:00,39.0,14.0,30.53,WNW,296,0.0,7.0,35,0.00,,,0.00,0.000000,,2013-03-15 06:42:00,
2013-03-15 00:53:00,39.0,14.0,30.53,WNW,296,0.0,7.0,35,0.00,,,0.00,0.000000,,2013-03-15 06:53:00,
2013-03-15 01:02:00,39.0,14.0,30.53,WNW,296,0.0,7.0,35,0.00,,,0.00,0.000000,,2013-03-15 07:02:00,
2013-03-15 01:12:00,40.0,15.0,30.51,WSW,244,0.0,4.0,35,0.00,,,0.00,0.000000,,2013-03-15 07:12:00,
2013-03-15 01:32:00,40.0,15.0,30.51,WSW,244,0.0,4.0,35,0.00,,,0.00,0.000000,,2013-03-15 07:32:00,
2013-03-15 01:42:00,40.0,15.0,30.51,WSW,244,0.0,4.0,35,0.00,,,0.00,0.000000,,2013-03-15 07:42:00,
2013-03-15 01:52:00,40.0,15.0,30.51,WSW,244,0.0,4.0,35,0.00,,,0.00,0.000000,,2013-03-15 07:52:00,
2013-03-15 02:02:00,40.0,15.0,30.51,WSW,244,0.0,4.0,35,0.00,,,0.00,0.000000,,2013-03-15 08:02:00,
2013-03-15 02:33:00,40.0,15.0,30.50,NNW,334,2.0,5.0,35,0.00,,,0.00,0.000000,,2013-03-15 08:33:00,
2013-03-15 02:42:00,40.0,15.0,30.50,NNW,334,2.0,5.0,35,0.00,,,0.00,0.000000,,2013-03-15 08:42:00,
2013-03-15 02:52:00,40.0,15.0,30.50,NNW,334,2.0,5.0,35,0.00,,,0.00,0.000000,,2013-03-15 08:52:00,
2013-03-15 03:02:00,40.0,15.0,30.50,NNW,334,2.0,5.0,35,0.00,,,0.00,0.000000,,2013-03-15 09:02:00,
2013-03-15 03:11:00,40.0,15.0,30.50,NNW,334,2.0,5.0,35,0.00,,,0.00,0.000000,,2013-03-15 09:11:00,
2013-03-15 03:12:00,42.0,15.0,30.48,NNW,341,1.0,7.0,33,0.00,,,0.00,0.000000,,2013-03-15 09:12:00,
2013-03-15 03:33:00,42.0,15.0,30.48,NNW,341,1.0,7.0,33,0.00,,,0.00,0.000000,,2013-03-15 09:33:00,
2013-03-15 03:43:00,42.0,15.0,30.48,NNW,341,1.0,7.0,33,0.00,,,0.00,0.000000,,2013-03-15 09:43:00,
2013-03-15 03:53:00,42.0,15.0,30.48,NNW,341,1.0,7.0,33,0.00,,,0.00,0.000000,,2013-03-15 09:53:00,
2013-03-15 04:02:00,42.0,15.0,30.48,NNW,341,1.0,7.0,33,0.00,,,0.00,0.000000,,2013-03-15 10:02:00,
2013-03-15 04:33:00,40.0,13.0,30.46,NNW,328,0.0,4.0,33,-99.99,,,0.00,0.000000,,2013-03-15 10:33:00,
2013-03-15 04:43:00,40.0,13.0,30.46,NNW,328,0.0,4.0,33,-99.99,,,0.00,0.000000,,2013-03-15 10:43:00,
2013-03-15 04:52:00,40.0,13.0,30.46,NNW,328,0.0,4.0,33,-99.99,,,0.00,0.000000,,2013-03-15 10:52:00,
2013-03-15 05:02:00,40.0,13.0,30.46,NNW,328,0.0,4.0,33,-99.99,,,0.00,0.000000,,2013-03-15 11:02:00,
2013-03-15 05:12:00,41.0,13.0,30.45,NE,56,0.0,5.0,32,0.00,,,0.00,0.000000,,2013-03-15 11:12:00,
2013-03-15 05:32:00,41.0,13.0,30.45,NE,56,0.0,5.0,32,0.00,,,0.00,0.000000,,2013-03-15 11:32:00,
2013-03-15 05:42:00,41.0,13.0,30.45,NE,56,0.0,5.0,32,0.00,,,0.00,0.000000,,2013-03-15 11:42:00,
2013-03-15 05:52:00,41.0,13.0,30.45,NE,56,0.0,5.0,32,0.00,,,0.00,0.000000,,2013-03-15 11:52:00,
2013-03-15 06:02:00,41.0,13.0,30.45,NE,56,0.0,5.0,32,0.00,,,0.00,0.000000,,2013-03-15 12:02:00,
2013-03-15 06:12:00,40.0,12.0,30.45,NNW,342,2.0,6.0,31,0.00,,,0.00,0.000000,,2013-03-15 12:12:00,
2013-03-15 06:32:00,40.0,12.0,30.45,NNW,342,2.0,6.0,31,0.00,,,0.00,0.000000,,2013-03-15 12:32:00,
2013-03-15 07:02:00,40.0,12.0,30.45,NNW,342,2.0,6.0,31,0.00,,,0.00,0.000000,,2013-03-15 13:02:00,
2013-03-15 07:42:00,41.0,12.0,30.43,North,5,2.0,5.0,30,0.00,,,0.00,0.000000,,2013-03-15 13:42:00,
2013-03-15 07:52:00,41.0,12.0,30.43,North,5,2.0,5.0,30,0.00,,,0.00,0.000000,,2013-03-15 13:52:00,
2013-03-15 08:02:00,41.0,12.0,30.43,North,5,2.0,5.0,30,0.00,,,0.00,0.000000,,2013-03-15 14:02:00,
2013-03-15 08:11:00,41.0,12.0,30.43,North,5,2.0,5.0,30,0.00,,,0.00,0.000000,,2013-03-15 14:11:00,
2013-03-15 08:12:00,41.0,12.0,30.42,North,0,5.0,7.0,30,0.00,,,0.00,69.000000,,2013-03-15 14:12:00,
2013-03-15 08:33:00,41.0,12.0,30.42,North,0,5.0,7.0,30,0.00,,,0.00,69.000000,,2013-03-15 14:33:00,
2013-03-15 08:42:00,41.0,12.0,30.42,North,0,5.0,7.0,30,0.00,,,0.00,69.000000,,2013-03-15 14:42:00,
2013-03-15 08:53:00,41.0,12.0,30.42,North,0,5.0,7.0,30,0.00,,,0.00,69.000000,,2013-03-15 14:53:00,
2013-03-15 09:02:00,41.0,12.0,30.42,North,0,5.0,7.0,30,0.00,,,0.00,69.000000,,2013-03-15 15:02:00,
2013-03-15 09:12:00,49.0,16.0,30.42,NNW,338,8.0,11.0,27,0.00,,,0.00,251.000000,,2013-03-15 15:12:00,
2013-03-15 09:33:00,49.0,16.0,30.42,NNW,338,8.0,11.0,27,0.00,,,0.00,251.000000,,2013-03-15 15:33:00,
2013-03-15 10:12:00,47.0,16.0,30.40,NW,321,9.0,14.0,28,0.00,,,-99.99,392.000000,,2013-03-15 16:12:00,
2013-03-15 10:32:00,47.0,16.0,30.40,NW,321,9.0,14.0,28,0.00,,,-99.99,392.000000,,2013-03-15 16:32:00,
2013-03-15 10:42:00,47.0,16.0,30.40,NW,321,9.0,14.0,28,0.00,,,-99.99,392.000000,,2013-03-15 16:42:00,
2013-03-15 10:52:00,47.0,16.0,30.40,NW,321,9.0,14.0,28,0.00,,,-99.99,392.000000,,2013-03-15 16:52:00,
2013-03-15 11:02:00,47.0,16.0,30.40,NW,321,9.0,14.0,28,0.00,,,-99.99,392.000000,,2013-03-15 17:02:00,
2013-03-15 11:32:00,47.0,16.0,30.40,NW,318,12.0,17.0,28,0.00,,,0.00,462.000000,,2013-03-15 17:32:00,
2013-03-15 11:43:00,47.0,16.0,30.40,NW,318,12.0,17.0,28,0.00,,,0.00,462.000000,,2013-03-15 17:43:00,
2013-03-15 11:53:00,47.0,16.0,30.40,NW,318,12.0,17.0,28,0.00,,,0.00,462.000000,,2013-03-15 17:53:00,
2013-03-15 12:02:00,47.0,16.0,30.40,NW,318,12.0,17.0,28,0.00,,,0.00,462.000000,,2013-03-15 18:02:00,
2013-03-15 12:11:00,47.0,16.0,30.40,NW,318,12.0,17.0,28,0.00,,,0.00,462.000000,,2013-03-15 18:11:00,
2013-03-15 12:12:00,47.0,16.0,30.40,NW,322,17.0,23.0,28,0.00,,,0.00,648.000000,,2013-03-15 18:12:00,
2013-03-15 12:42:00,47.0,16.0,30.40,NW,322,17.0,23.0,28,0.00,,,0.00,648.000000,,2013-03-15 18:42:00,
2013-03-15 12:52:00,47.0,16.0,30.40,NW,322,17.0,23.0,28,0.00,,,0.00,648.000000,,2013-03-15 18:52:00,
2013-03-15 13:02:00,47.0,16.0,30.40,NW,322,17.0,23.0,28,0.00,,,0.00,648.000000,,2013-03-15 19:02:00,
2013-03-15 13:12:00,51.0,17.0,30.38,NW,319,20.0,29.0,26,0.00,,,-99.99,960.000000,,2013-03-15 19:12:00,
2013-03-15 13:42:00,51.0,17.0,30.38,NW,319,20.0,29.0,26,0.00,,,-99.99,960.000000,,2013-03-15 19:42:00,
2013-03-15 13:52:00,51.0,17.0,30.38,NW,319,20.0,29.0,26,0.00,,,-99.99,960.000000,,2013-03-15 19:52:00,
2013-03-15 14:02:00,51.0,17.0,30.38,NW,319,20.0,29.0,26,0.00,,,-99.99,960.000000,,2013-03-15 20:02:00,
2013-03-15 14:42:00,50.0,16.0,30.36,WNW,293,17.0,30.0,26,0.00,,,0.00,1041.000000,,2013-03-15 20:42:00,
2013-03-15 14:52:00,50.0,16.0,30.36,WNW,293,17.0,30.0,26,0.00,,,0.00,1041.000000,,2013-03-15 20:52:00,
2013-03-15 15:02:00,50.0,16.0,30.36,WNW,293,17.0,30.0,26,0.00,,,0.00,1041.000000,,2013-03-15 21:02:00,
2013-03-15 15:11:00,50.0,16.0,30.36,WNW,293,17.0,30.0,26,0.00,,,0.00,1041.000000,,2013-03-15 21:11:00,
2013-03-15 15:12:00,52.0,16.0,30.34,WNW,287,13.0,25.0,24,0.00,,,0.00,901.000000,,2013-03-15 21:12:00,
2013-03-15 15:43:00,52.0,16.0,30.34,WNW,287,13.0,25.0,24,0.00,,,0.00,901.000000,,2013-03-15 21:43:00,
2013-03-15 15:52:00,52.0,16.0,30.34,WNW,287,13.0,25.0,24,0.00,,,0.00,901.000000,,2013-03-15 21:52:00,
2013-03-15 16:03:00,52.0,16.0,30.34,WNW,287,13.0,25.0,24,0.00,,,0.00,901.000000,,2013-03-15 22:03:00,
2013-03-15 16:12:00,52.0,16.0,30.32,WNW,284,12.0,24.0,24,0.00,,,0.00,819.000000,,2013-03-15 22:12:00,
2013-03-15 16:33:00,52.0,16.0,30.32,WNW,284,12.0,24.0,24,0.00,,,0.00,819.000000,,2013-03-15 22:33:00,
2013-03-15 16:42:00,52.0,16.0,30.32,WNW,284,12.0,24.0,24,0.00,,,0.00,819.000000,,2013-03-15 22:42:00,
2013-03-15 16:52:00,52.0,16.0,30.32,WNW,284,12.0,24.0,24,0.00,,,0.00,819.000000,,2013-03-15 22:52:00,
2013-03-15 17:02:00,52.0,16.0,30.32,WNW,284,12.0,24.0,24,0.00,,,0.00,819.000000,,2013-03-15 23:02:00,
2013-03-15 17:12:00,50.0,17.0,30.30,WNW,289,13.0,21.0,27,0.00,,,0.00,538.000000,,2013-03-15 23:12:00,
2013-03-15 17:42:00,50.0,17.0,30.30,WNW,289,13.0,21.0,27,0.00,,,0.00,538.000000,,2013-03-15 23:42:00,
2013-03-15 17:53:00,50.0,17.0,30.30,WNW,289,13.0,21.0,27,0.00,,,0.00,538.000000,,2013-03-15 23:53:00,
2013-03-15 18:02:00,50.0,17.0,30.30,WNW,289,13.0,21.0,27,0.00,,,0.00,538.000000,,2013-03-16 00:02:00,
2013-03-15 19:12:00,43.0,16.0,30.27,NW,321,15.0,20.0,33,-99.99,,,0.00,57.000000,,2013-03-16 01:12:00,
2013-03-15 19:32:00,43.0,16.0,30.27,NW,321,15.0,20.0,33,-99.99,,,0.00,57.000000,,2013-03-16 01:32:00,
2013-03-15 19:42:00,43.0,16.0,30.27,NW,321,15.0,20.0,33,-99.99,,,0.00,57.000000,,2013-03-16 01:42:00,
2013-03-15 19:52:00,43.0,16.0,30.27,NW,321,15.0,20.0,33,-99.99,,,0.00,57.000000,,2013-03-16 01:52:00,
2013-03-15 20:02:00,43.0,16.0,30.27,NW,321,15.0,20.0,33,-99.99,,,0.00,57.000000,,2013-03-16 02:02:00,
2013-03-15 20:43:00,44.0,18.0,30.28,NW,309,15.0,23.0,35,0.00,,,0.00,0.000000,,2013-03-16 02:43:00,
2013-03-15 20:52:00,44.0,18.0,30.28,NW,309,15.0,23.0,35,0.00,,,0.00,0.000000,,2013-03-16 02:52:00,
2013-03-15 21:02:00,44.0,18.0,30.28,NW,309,15.0,23.0,35,0.00,,,0.00,0.000000,,2013-03-16 03:02:00,
2013-03-15 21:11:00,44.0,18.0,30.28,NW,309,15.0,23.0,35,0.00,,,0.00,0.000000,,2013-03-16 03:11:00,
2013-03-15 21:12:00,43.0,17.0,30.28,West,281,8.0,19.0,34,0.00,,,0.00,0.000000,,2013-03-16 03:12:00,
2013-03-15 21:43:00,43.0,17.0,30.28,West,281,8.0,19.0,34,0.00,,,0.00,0.000000,,2013-03-16 03:43:00,
2013-03-15 21:53:00,43.0,17.0,30.28,West,281,8.0,19.0,34,0.00,,,0.00,0.000000,,2013-03-16 03:53:00,
2013-03-15 22:02:00,43.0,17.0,30.28,West,281,8.0,19.0,34,0.00,,,0.00,0.000000,,2013-03-16 04:02:00,
2013-03-15 22:12:00,42.0,15.0,30.27,WNW,282,9.0,12.0,33,0.00,,,0.00,0.000000,,2013-03-16 04:12:00,
2013-03-15 22:33:00,42.0,15.0,30.27,WNW,282,9.0,12.0,33,0.00,,,0.00,0.000000,,2013-03-16 04:33:00,
2013-03-15 22:43:00,42.0,15.0,30.27,WNW,282,9.0,12.0,33,0.00,,,0.00,0.000000,,2013-03-16 04:43:00,
2013-03-15 22:53:00,42.0,15.0,30.27,WNW,282,9.0,12.0,33,0.00,,,0.00,0.000000,,2013-03-16 04:53:00,
2013-03-15 23:02:00,42.0,15.0,30.27,WNW,282,9.0,12.0,33,0.00,,,0.00,0.000000,,2013-03-16 05:02:00,
2013-03-15 23:12:00,41.0,15.0,30.26,NW,315,9.0,14.0,34,0.00,,,0.00,0.000000,,2013-03-16 05:12:00,
2013-03-15 23:32:00,41.0,15.0,30.26,NW,315,9.0,14.0,34,0.00,,,0.00,0.000000,,2013-03-16 05:32:00,
2013-03-15 23:42:00,41.0,15.0,30.26,NW,315,9.0,14.0,34,0.00,,,0.00,0.000000,,2013-03-16 05:42:00,
2013-03-15 23:53:00,41.0,15.0,30.26,NW,315,9.0,14.0,34,0.00,,,0.00,0.000000,,2013-03-16 05:53:00,